Time;durP1;ratioP1;P1;durP2;ratioP2;P2;SDS_P1;SDS_P2;PMS_P1;PMS_P2;Temp;Humidity;BMP_temperature;BMP_pressure;BME280_temperature;BME280_humidity;BME280_pressure;Samples;Min_cycle;Max_cycle;Signal;HPM_P1;HPM_P2
2022/11/08 00:01:32;;;;;;;12.23;2.88;;;12.40;99.90;;;;;;5076923;28;20094;-40
2022/11/08 00:03:59;;;;;;;10.75;3.20;;;12.30;99.90;;;;;;5076711;28;20048;-40
2022/11/08 00:14:39;;;;;;;14.50;2.83;;;12.30;99.90;;;;;;5077123;28;20091;-40
2022/11/08 00:17:04;;;;;;;14.75;2.72;;;12.30;99.90;;;;;;5075503;28;20092;-39
2022/11/08 00:19:30;;;;;;;13.40;2.47;;;12.30;99.90;;;;;;5075320;28;20049;-40
2022/11/08 00:21:56;;;;;;;11.18;2.47;;;12.40;99.90;;;;;;5076436;28;20479;-40
2022/11/08 00:24:21;;;;;;;17.23;3.38;;;12.30;99.90;;;;;;5075504;28;20044;-37
2022/11/08 00:26:47;;;;;;;15.07;2.83;;;12.30;99.90;;;;;;5058978;28;20482;-41
2022/11/08 00:29:13;;;;;;;8.60;2.53;;;12.40;99.90;;;;;;5076284;28;20040;-40
2022/11/08 00:31:39;;;;;;;14.25;2.83;;;12.40;99.90;;;;;;5076180;28;20431;-40
2022/11/08 00:34:04;;;;;;;12.30;3.35;;;12.40;99.90;;;;;;5076510;28;20070;-41
2022/11/08 00:36:30;;;;;;;11.25;2.90;;;12.40;99.90;;;;;;5076678;28;20462;-40
2022/11/08 00:38:56;;;;;;;13.98;2.40;;;12.40;99.90;;;;;;5076101;28;20130;-41
2022/11/08 00:41:21;;;;;;;15.13;2.60;;;12.50;99.90;;;;;;5076594;28;20048;-40
2022/11/08 00:43:47;;;;;;;13.70;2.85;;;12.50;99.90;;;;;;5075988;28;20117;-39
2022/11/08 00:46:13;;;;;;;13.93;2.53;;;12.40;99.90;;;;;;5076042;28;20057;-39
2022/11/08 00:48:38;;;;;;;14.25;2.70;;;12.50;99.90;;;;;;5075891;28;20127;-40
2022/11/08 00:51:06;;;;;;;15.43;2.63;;;12.50;99.90;;;;;;5075834;28;20036;-42
2022/11/08 00:53:32;;;;;;;14.45;3.20;;;12.50;99.90;;;;;;5075559;28;20444;-40
2022/11/08 00:56:03;;;;;;;10.10;2.65;;;12.50;99.90;;;;;;5074318;28;20048;-41
2022/11/08 00:58:29;;;;;;;17.00;2.20;;;12.50;99.90;;;;;;5075767;28;20055;-40
2022/11/08 01:00:55;;;;;;;15.20;3.08;;;12.50;99.90;;;;;;5074529;28;20052;-40
2022/11/08 01:03:22;;;;;;;12.23;2.50;;;12.50;99.90;;;;;;5057971;28;20088;-41
2022/11/08 01:05:50;;;;;;;13.88;2.15;;;12.60;99.90;;;;;;5074644;28;20066;-39
2022/11/08 01:08:17;;;;;;;11.95;3.00;;;12.40;99.90;;;;;;5075487;28;20044;-40
2022/11/08 01:10:45;;;;;;;16.60;2.85;;;12.50;99.90;;;;;;5073504;28;20044;-40
2022/11/08 01:13:11;;;;;;;16.20;3.58;;;12.50;99.90;;;;;;5075300;28;20036;-39
2022/11/08 01:15:40;;;;;;;10.93;2.40;;;12.40;99.90;;;;;;5076235;28;20386;-40
2022/11/08 01:18:07;;;;;;;13.55;2.75;;;12.50;99.90;;;;;;5075360;28;20398;-42
2022/11/08 01:20:40;;;;;;;14.38;2.67;;;12.50;99.90;;;;;;5075616;28;20125;-40
2022/11/08 01:23:06;;;;;;;15.30;2.97;;;12.50;99.90;;;;;;5075293;28;20056;-40
2022/11/08 01:25:44;;;;;;;11.77;2.55;;;12.40;99.90;;;;;;5075057;28;20059;-40
2022/11/08 01:28:11;;;;;;;18.98;2.72;;;12.40;99.90;;;;;;5075188;28;20055;-40
2022/11/08 01:30:38;;;;;;;9.93;1.90;;;12.40;99.90;;;;;;5075873;28;20048;-40
2022/11/08 01:33:05;;;;;;;18.33;2.70;;;12.40;99.90;;;;;;5075115;28;20053;-40
2022/11/08 01:35:31;;;;;;;9.85;2.58;;;12.40;99.90;;;;;;5074673;28;20118;-40
2022/11/08 01:37:58;;;;;;;9.50;1.98;;;12.40;99.90;;;;;;5075233;28;20070;-41
2022/11/08 01:40:25;;;;;;;10.50;2.13;;;12.40;99.90;;;;;;5074930;28;20405;-38
2022/11/08 01:42:52;;;;;;;15.13;2.83;;;12.30;99.90;;;;;;5074830;28;20040;-41
2022/11/08 01:45:55;;;;;;;12.40;2.60;;;12.30;99.90;;;;;;5057220;28;20055;-39
2022/11/08 01:48:22;;;;;;;11.77;2.13;;;12.30;99.90;;;;;;5074756;28;20048;-38
2022/11/08 01:50:49;;;;;;;16.80;2.83;;;12.30;99.90;;;;;;5074632;28;20359;-41
2022/11/08 01:53:15;;;;;;;12.93;2.95;;;12.30;99.90;;;;;;5074608;28;20049;-40
2022/11/08 01:55:41;;;;;;;11.30;2.15;;;12.20;99.90;;;;;;5074454;28;20048;-40
2022/11/08 01:58:13;;;;;;;10.90;2.30;;;12.10;99.90;;;;;;5074619;28;20050;-39
2022/11/08 02:00:39;;;;;;;8.63;2.08;;;12.20;99.90;;;;;;5074681;28;20505;-40
2022/11/08 02:03:08;;;;;;;17.40;3.60;;;12.20;99.90;;;;;;5074447;28;20060;-39
2022/11/08 02:05:34;;;;;;;14.02;2.15;;;12.10;99.90;;;;;;5074412;28;20055;-39
2022/11/08 02:08:10;;;;;;;16.73;3.13;;;12.00;99.90;;;;;;5074292;28;20045;-39
2022/11/08 02:10:38;;;;;;;10.02;2.85;;;12.00;99.90;;;;;;5074525;28;20097;-40
2022/11/08 02:13:07;;;;;;;14.95;2.60;;;11.90;99.90;;;;;;5073295;28;20512;-39
2022/11/08 02:15:33;;;;;;;32.00;4.63;;;12.00;99.90;;;;;;5074787;28;20045;-39
2022/11/08 02:17:59;;;;;;;10.40;2.28;;;12.00;99.90;;;;;;5074189;28;20068;-39
2022/11/08 02:20:26;;;;;;;8.02;2.45;;;12.00;99.90;;;;;;5074168;28;20052;-38
2022/11/08 02:23:23;;;;;;;9.55;2.03;;;12.00;99.90;;;;;;5073732;28;20490;-37
2022/11/08 02:25:50;;;;;;;14.27;3.05;;;12.00;99.90;;;;;;5063931;28;20403;-37
2022/11/08 02:28:15;;;;;;;9.88;1.90;;;12.00;99.90;;;;;;5073026;28;20086;-37
2022/11/08 02:30:41;;;;;;;10.77;2.28;;;12.00;99.90;;;;;;5073940;28;20037;-39
2022/11/08 02:33:18;;;;;;;11.85;2.28;;;11.90;99.90;;;;;;5073992;28;20051;-41
2022/11/08 02:35:51;;;;;;;14.07;2.30;;;11.90;99.90;;;;;;5072976;28;20048;-39
2022/11/08 02:38:18;;;;;;;9.95;2.30;;;11.80;99.90;;;;;;5074789;28;20087;-39
2022/11/08 02:40:48;;;;;;;10.05;2.47;;;11.70;99.90;;;;;;5072935;28;20056;-39
2022/11/08 02:43:14;;;;;;;9.32;1.77;;;11.70;99.90;;;;;;5072935;28;20483;-37
2022/11/08 02:45:40;;;;;;;10.02;2.42;;;11.60;99.90;;;;;;5073832;28;20051;-39
2022/11/08 02:48:06;;;;;;;10.57;2.60;;;11.60;99.90;;;;;;5074881;28;20048;-38
2022/11/08 02:50:31;;;;;;;10.02;2.60;;;11.70;99.90;;;;;;5072428;28;20044;-39
2022/11/08 02:52:57;;;;;;;9.15;2.17;;;11.60;99.90;;;;;;5074279;28;20182;-39
2022/11/08 02:55:23;;;;;;;8.38;2.20;;;11.50;99.90;;;;;;5074004;28;20141;-38
2022/11/08 02:57:48;;;;;;;15.13;3.28;;;11.40;99.90;;;;;;5073706;28;20381;-39
2022/11/08 03:00:14;;;;;;;12.20;2.17;;;11.40;99.90;;;;;;5072238;28;20101;-37
2022/11/08 03:02:40;;;;;;;9.55;2.30;;;11.40;99.90;;;;;;5073359;28;20044;-38
2022/11/08 03:05:06;;;;;;;9.52;3.13;;;11.40;99.90;;;;;;5074156;28;20056;-39
2022/11/08 03:07:32;;;;;;;13.15;2.90;;;11.40;99.90;;;;;;5056263;28;20047;-39
2022/11/08 03:09:58;;;;;;;9.43;2.50;;;11.50;99.90;;;;;;5073487;28;20044;-38
2022/11/08 03:12:23;;;;;;;13.63;3.00;;;11.40;99.90;;;;;;5073548;28;20048;-39
2022/11/08 03:14:49;;;;;;;12.73;3.47;;;11.40;99.90;;;;;;5072357;28;20128;-38
2022/11/08 03:17:15;;;;;;;13.57;2.20;;;11.30;99.90;;;;;;5073750;28;20044;-38
2022/11/08 03:19:41;;;;;;;16.10;3.25;;;11.30;99.90;;;;;;5074304;28;20462;-38
2022/11/08 03:22:07;;;;;;;9.73;2.47;;;11.20;99.90;;;;;;5073477;28;20123;-38
2022/11/08 03:24:32;;;;;;;10.27;2.28;;;11.20;99.90;;;;;;5072425;28;20045;-38
2022/11/08 03:26:58;;;;;;;17.23;3.20;;;11.20;99.90;;;;;;5073942;28;20053;-39
2022/11/08 03:29:24;;;;;;;13.32;2.90;;;11.10;99.90;;;;;;5073410;28;20091;-37
2022/11/08 03:31:50;;;;;;;13.32;2.63;;;11.00;99.90;;;;;;5073304;28;20048;-38
2022/11/08 03:34:16;;;;;;;10.82;2.58;;;11.00;99.90;;;;;;5074263;28;20045;-38
2022/11/08 03:36:42;;;;;;;11.55;2.47;;;10.90;99.90;;;;;;5077253;28;20051;-38
2022/11/08 03:39:08;;;;;;;9.68;2.70;;;10.90;99.90;;;;;;5076084;28;20120;-38
2022/11/08 03:41:34;;;;;;;9.35;2.45;;;10.90;99.90;;;;;;5078001;28;20347;-38
2022/11/08 03:44:00;;;;;;;14.27;2.67;;;10.80;99.90;;;;;;5077127;28;20055;-38
2022/11/08 03:46:25;;;;;;;11.95;2.55;;;10.80;99.90;;;;;;5077403;28;20044;-37
2022/11/08 03:48:51;;;;;;;13.85;3.00;;;10.80;99.90;;;;;;5077096;28;20375;-39
2022/11/08 03:51:17;;;;;;;13.70;2.90;;;10.70;99.90;;;;;;5075739;28;20041;-39
2022/11/08 03:53:42;;;;;;;13.80;2.50;;;10.80;99.90;;;;;;5076996;28;20046;-37
2022/11/08 03:56:08;;;;;;;8.25;2.10;;;10.70;99.90;;;;;;5076871;28;20062;-38
2022/11/08 03:58:34;;;;;;;10.00;2.50;;;10.70;99.90;;;;;;5076867;28;20049;-38
2022/11/08 04:01:06;;;;;;;19.77;3.45;;;10.70;99.90;;;;;;5075451;28;20120;-37
2022/11/08 04:03:32;;;;;;;10.10;2.55;;;10.60;99.90;;;;;;5076713;28;20041;-37
2022/11/08 04:06:01;;;;;;;13.93;2.67;;;10.50;99.90;;;;;;5076752;28;20106;-38
2022/11/08 04:08:30;;;;;;;9.23;2.80;;;10.40;99.90;;;;;;5076546;28;20105;-38
2022/11/08 04:15:13;;;;;;;12.27;3.17;;;10.40;99.90;;;;;;5076524;28;20041;-37
2022/11/08 04:16:32;;;;;;;9.30;2.55;;;10.20;99.90;;;;;;5076570;28;20060;-38
2022/11/08 04:21:46;;;;;;;17.52;2.95;;;10.20;99.90;;;;;;5076784;28;20041;-38
2022/11/08 04:24:11;;;;;;;8.25;2.67;;;10.10;99.90;;;;;;5076367;28;20051;-38
2022/11/08 04:26:39;;;;;;;12.10;2.90;;;10.00;99.90;;;;;;5076899;28;20135;-38
2022/11/08 04:29:06;;;;;;;12.73;3.30;;;9.90;99.90;;;;;;5076257;28;20086;-38
2022/11/08 04:31:32;;;;;;;11.80;3.00;;;9.80;99.90;;;;;;5076239;28;20045;-37
2022/11/08 04:33:58;;;;;;;13.27;3.78;;;9.80;99.90;;;;;;5074782;28;20517;-37
2022/11/08 04:36:24;;;;;;;17.17;3.50;;;9.80;99.90;;;;;;5076251;28;20109;-38
2022/11/08 04:38:51;;;;;;;15.75;3.10;;;9.70;99.90;;;;;;5076138;28;20049;-37
2022/11/08 04:41:19;;;;;;;12.15;3.08;;;9.70;99.90;;;;;;5074925;28;20044;-37
2022/11/08 04:43:45;;;;;;;11.93;4.30;;;9.70;99.90;;;;;;5076059;28;20044;-38
2022/11/08 04:46:17;;;;;;;9.48;3.60;;;9.70;99.90;;;;;;5074150;28;20041;-37
2022/11/08 04:48:43;;;;;;;14.63;4.00;;;9.70;99.90;;;;;;5076072;28;20218;-39
2022/11/08 04:51:30;;;;;;;15.27;3.78;;;9.80;99.90;;;;;;5075841;28;20041;-37
2022/11/08 04:53:58;;;;;;;8.95;3.15;;;9.80;99.90;;;;;;5074704;28;20510;-37
2022/11/08 04:56:26;;;;;;;17.02;3.53;;;9.90;99.90;;;;;;5075762;28;20135;-37
2022/11/08 04:58:54;;;;;;;15.70;3.72;;;9.90;99.90;;;;;;5075771;28;20449;-37
2022/11/08 05:01:22;;;;;;;11.18;3.40;;;9.90;99.90;;;;;;5074324;28;20048;-37
2022/11/08 05:03:50;;;;;;;12.68;4.22;;;9.90;99.90;;;;;;5075243;28;20048;-37
2022/11/08 05:06:21;;;;;;;18.40;4.00;;;10.00;99.90;;;;;;5075679;28;20056;-37
2022/11/08 05:08:47;;;;;;;9.15;3.17;;;10.00;99.90;;;;;;5075765;28;20380;-37
2022/11/08 05:11:16;;;;;;;16.55;3.33;;;10.00;99.90;;;;;;5075469;28;20390;-37
2022/11/08 05:13:42;;;;;;;11.98;3.55;;;10.00;99.90;;;;;;5074531;28;20097;-37
2022/11/08 05:16:13;;;;;;;14.75;4.32;;;9.90;99.90;;;;;;5075301;28;20052;-37
2022/11/08 05:18:39;;;;;;;14.13;3.13;;;9.90;99.90;;;;;;5075345;28;20547;-38
2022/11/08 05:23:50;;;;;;;14.23;2.80;;;10.00;99.90;;;;;;5075331;28;20049;-37
2022/11/08 05:26:18;;;;;;;12.38;3.15;;;10.00;99.90;;;;;;5075764;28;20052;-37
2022/11/08 05:28:44;;;;;;;12.57;2.90;;;10.00;99.90;;;;;;5057783;28;20467;-37
2022/11/08 05:31:10;;;;;;;11.43;3.00;;;10.10;99.90;;;;;;5075344;28;20413;-37
2022/11/08 05:33:36;;;;;;;14.20;3.80;;;10.00;99.90;;;;;;5075043;28;20513;-38
2022/11/08 05:36:09;;;;;;;14.23;2.63;;;10.00;99.90;;;;;;5075066;28;20079;-38
2022/11/08 05:38:35;;;;;;;8.23;3.53;;;10.00;99.90;;;;;;5075673;28;20044;-37
2022/11/08 05:41:06;;;;;;;10.30;3.08;;;10.00;99.90;;;;;;5074978;28;20420;-37
2022/11/08 05:43:33;;;;;;;15.80;3.10;;;9.90;99.90;;;;;;5074924;28;20474;-38
2022/11/08 05:45:59;;;;;;;8.63;3.22;;;9.90;99.90;;;;;;5073808;28;20052;-37
2022/11/08 05:48:24;;;;;;;7.85;2.55;;;9.90;99.90;;;;;;5074748;28;20475;-38
2022/11/08 05:50:51;;;;;;;9.93;2.92;;;9.90;99.90;;;;;;5075183;28;20123;-37
2022/11/08 05:53:17;;;;;;;9.20;2.38;;;9.90;99.90;;;;;;5074344;28;20506;-37
2022/11/08 05:55:42;;;;;;;8.68;2.65;;;9.90;99.90;;;;;;5074622;28;20048;-37
2022/11/08 05:58:08;;;;;;;9.32;2.65;;;9.90;99.90;;;;;;5074272;28;20530;-37
2022/11/08 06:00:34;;;;;;;12.88;2.53;;;9.90;99.90;;;;;;5075135;28;20056;-37
2022/11/08 06:03:04;;;;;;;13.52;3.15;;;9.90;99.90;;;;;;5074377;28;20414;-37
2022/11/08 06:05:30;;;;;;;9.73;2.65;;;9.90;99.90;;;;;;5074430;28;20502;-36
2022/11/08 06:07:56;;;;;;;9.45;2.58;;;10.00;99.90;;;;;;5072849;28;20514;-38
2022/11/08 06:10:21;;;;;;;9.45;2.70;;;9.90;99.90;;;;;;5040187;28;20080;-37
2022/11/08 06:12:47;;;;;;;10.75;2.30;;;9.90;99.90;;;;;;5074229;28;20044;-37
2022/11/08 06:15:13;;;;;;;8.75;2.60;;;9.90;99.90;;;;;;5073094;28;20101;-37
2022/11/08 06:17:38;;;;;;;9.50;2.40;;;9.80;99.90;;;;;;5074265;28;20046;-37
2022/11/08 06:20:06;;;;;;;11.73;2.40;;;9.80;99.90;;;;;;5074193;28;20478;-37
2022/11/08 06:22:33;;;;;;;7.85;2.13;;;9.80;99.90;;;;;;5073779;28;20180;-38
2022/11/08 06:24:59;;;;;;;8.48;2.67;;;9.80;99.90;;;;;;5074091;28;20047;-37
2022/11/08 06:27:26;;;;;;;9.98;2.88;;;9.70;99.90;;;;;;5072895;28;20044;-37
2022/11/08 06:29:51;;;;;;;8.43;2.63;;;9.70;99.90;;;;;;5074035;28;20048;-37
2022/11/08 06:32:17;;;;;;;9.70;2.90;;;9.70;99.90;;;;;;5073902;28;20044;-37
2022/11/08 06:34:45;;;;;;;12.30;2.22;;;9.70;99.90;;;;;;5073998;28;20060;-37
2022/11/08 06:37:11;;;;;;;8.20;1.92;;;9.70;99.90;;;;;;5072783;28;20048;-37
2022/11/08 06:39:37;;;;;;;8.70;2.58;;;9.80;99.90;;;;;;5074668;28;20056;-38
2022/11/08 06:42:03;;;;;;;11.15;3.70;;;9.80;99.90;;;;;;5072852;28;20048;-37
2022/11/08 06:44:29;;;;;;;8.70;2.65;;;9.90;99.90;;;;;;5073876;28;20127;-37
2022/11/08 06:46:54;;;;;;;11.15;2.92;;;9.90;99.90;;;;;;5073816;28;20052;-37
2022/11/08 06:49:22;;;;;;;5.07;2.05;;;10.00;99.90;;;;;;5073764;28;20040;-37
2022/11/08 06:51:48;;;;;;;10.05;1.98;;;10.00;99.90;;;;;;5055889;28;20048;-37
2022/11/08 06:54:14;;;;;;;9.18;2.10;;;10.00;99.90;;;;;;5074541;28;20048;-37
2022/11/08 06:56:40;;;;;;;7.68;2.35;;;10.10;99.90;;;;;;5074019;28;20390;-37
2022/11/08 06:59:05;;;;;;;7.45;1.80;;;10.10;99.90;;;;;;5072497;28;20505;-37
2022/11/08 07:01:31;;;;;;;6.05;1.65;;;10.10;99.90;;;;;;5072616;28;20056;-37
2022/11/08 07:03:57;;;;;;;7.82;1.73;;;10.20;99.90;;;;;;5073503;28;20055;-37
2022/11/08 07:06:22;;;;;;;6.38;1.75;;;10.20;99.90;;;;;;5074151;28;20146;-37
2022/11/08 07:08:48;;;;;;;8.45;2.25;;;10.20;99.90;;;;;;5072782;28;20048;-37
2022/11/08 07:11:15;;;;;;;9.30;2.85;;;10.20;99.90;;;;;;5073504;28;20041;-37
2022/11/08 07:13:40;;;;;;;10.50;2.30;;;10.30;99.90;;;;;;5073521;28;20044;-37
2022/11/08 07:16:06;;;;;;;6.00;2.13;;;10.40;99.90;;;;;;5073529;28;20056;-37
2022/11/08 07:18:32;;;;;;;5.72;2.38;;;10.40;99.90;;;;;;5073192;28;20098;-36
2022/11/08 07:21:01;;;;;;;4.40;1.60;;;10.50;99.90;;;;;;5055846;28;20049;-37
2022/11/08 07:23:28;;;;;;;12.18;2.72;;;10.60;99.90;;;;;;5072464;28;20486;-37
2022/11/08 07:25:53;;;;;;;13.00;2.55;;;10.70;99.90;;;;;;5073715;28;20076;-36
2022/11/08 07:28:20;;;;;;;10.63;3.00;;;10.70;99.90;;;;;;5073394;28;20482;-37
2022/11/08 07:30:47;;;;;;;9.55;2.33;;;10.70;99.90;;;;;;5073248;28;20047;-36
2022/11/08 07:33:13;;;;;;;11.30;2.42;;;10.70;99.90;;;;;;5073390;28;20097;-36
2022/11/08 07:35:39;;;;;;;7.65;2.67;;;10.70;99.90;;;;;;5073895;28;20406;-37
2022/11/08 07:38:05;;;;;;;10.80;2.50;;;10.70;99.90;;;;;;5072984;28;20052;-36
2022/11/08 07:40:33;;;;;;;6.97;2.45;;;10.80;99.90;;;;;;5073249;28;20052;-37
2022/11/08 07:42:59;;;;;;;6.30;2.92;;;10.80;99.90;;;;;;5073544;28;20080;-36
2022/11/08 07:45:26;;;;;;;7.88;2.33;;;10.80;99.90;;;;;;5073239;28;20465;-37
2022/11/08 07:48:18;;;;;;;12.40;3.22;;;10.90;99.90;;;;;;5073237;28;20398;-36
2022/11/08 07:50:45;;;;;;;17.65;3.70;;;10.90;99.90;;;;;;5070586;28;20136;-37
2022/11/08 07:53:11;;;;;;;5.30;2.05;;;10.90;99.90;;;;;;5073121;28;20558;-36
2022/11/08 07:55:40;;;;;;;11.95;2.63;;;11.00;99.90;;;;;;5073787;28;20157;-37
2022/11/08 07:58:06;;;;;;;8.00;2.17;;;11.00;99.90;;;;;;5072979;28;20052;-36
2022/11/08 08:00:37;;;;;;;5.47;2.00;;;11.10;99.90;;;;;;5072453;28;20437;-37
2022/11/08 08:03:04;;;;;;;7.47;2.20;;;11.10;99.90;;;;;;5073749;28;20155;-37
2022/11/08 08:05:34;;;;;;;10.00;2.83;;;11.20;99.90;;;;;;5073068;28;20052;-36
2022/11/08 08:08:01;;;;;;;6.80;2.47;;;11.20;99.90;;;;;;5072925;28;20051;-36
2022/11/08 08:10:27;;;;;;;4.97;1.73;;;11.20;99.90;;;;;;5072695;28;20471;-36
2022/11/08 08:12:54;;;;;;;5.90;1.75;;;11.30;99.90;;;;;;5071367;28;20059;-36
2022/11/08 08:15:20;;;;;;;6.38;2.30;;;11.30;99.90;;;;;;5072935;28;20049;-36
2022/11/08 08:17:46;;;;;;;5.00;1.63;;;11.40;99.90;;;;;;5073482;28;20041;-36
2022/11/08 08:20:12;;;;;;;6.43;1.98;;;11.40;99.90;;;;;;5074031;28;20088;-36
2022/11/08 08:22:45;;;;;;;6.82;2.00;;;11.50;99.90;;;;;;5076427;28;20040;-36
2022/11/08 08:25:11;;;;;;;8.55;2.30;;;11.50;99.90;;;;;;5077280;28;20123;-36
2022/11/08 08:27:37;;;;;;;4.38;1.70;;;11.40;99.90;;;;;;5075231;28;20044;-36
2022/11/08 08:30:04;;;;;;;5.05;1.63;;;11.40;99.90;;;;;;5076358;28;20071;-35
2022/11/08 08:32:30;;;;;;;17.13;3.15;;;11.40;99.90;;;;;;5076228;28;20123;-36
2022/11/08 08:34:55;;;;;;;7.97;1.88;;;11.40;99.90;;;;;;5075105;28;20148;-36
2022/11/08 08:37:21;;;;;;;8.63;2.15;;;11.40;99.90;;;;;;5076510;28;20059;-35
2022/11/08 08:39:47;;;;;;;8.38;2.03;;;11.40;99.90;;;;;;5076092;28;20470;-36
2022/11/08 08:42:12;;;;;;;7.13;1.77;;;11.50;99.90;;;;;;5076927;28;20127;-36
2022/11/08 08:44:38;;;;;;;7.10;2.15;;;11.50;99.90;;;;;;5076607;28;20102;-36
2022/11/08 08:47:04;;;;;;;5.60;1.90;;;11.60;99.90;;;;;;5076028;28;20052;-35
2022/11/08 08:49:29;;;;;;;5.28;1.63;;;11.60;99.90;;;;;;5075405;28;20478;-35
2022/11/08 08:51:55;;;;;;;6.10;2.00;;;11.70;99.90;;;;;;5075968;28;20099;-36
2022/11/08 08:54:21;;;;;;;8.43;2.28;;;11.70;99.90;;;;;;5075905;28;20097;-35
2022/11/08 08:56:46;;;;;;;6.22;1.77;;;11.90;99.90;;;;;;5076950;28;20045;-36
2022/11/08 08:59:13;;;;;;;9.23;1.95;;;11.80;99.90;;;;;;5058219;28;20051;-36
2022/11/08 09:01:39;;;;;;;7.88;2.28;;;12.00;99.90;;;;;;5075458;28;20056;-36
2022/11/08 09:04:05;;;;;;;4.45;1.58;;;12.00;99.90;;;;;;5074791;28;20228;-35
2022/11/08 09:06:30;;;;;;;9.45;1.95;;;12.10;99.90;;;;;;5074682;28;20486;-35
2022/11/08 09:08:57;;;;;;;7.10;1.60;;;12.20;99.90;;;;;;5075509;28;20048;-36
2022/11/08 09:11:22;;;;;;;5.22;1.73;;;12.20;99.90;;;;;;5076030;28;20048;-36
2022/11/08 09:13:48;;;;;;;9.43;2.30;;;12.30;99.90;;;;;;5075790;28;20044;-36
2022/11/08 09:16:14;;;;;;;6.28;2.10;;;12.40;99.90;;;;;;5075428;28;20128;-35
2022/11/08 09:18:40;;;;;;;6.45;1.70;;;12.40;99.90;;;;;;5076031;28;20050;-35
2022/11/08 09:21:06;;;;;;;4.55;2.00;;;12.40;99.90;;;;;;5073462;28;20053;-35
2022/11/08 09:23:32;;;;;;;6.13;1.77;;;12.50;99.90;;;;;;5074822;28;20139;-35
2022/11/08 09:25:59;;;;;;;4.78;2.08;;;12.50;99.90;;;;;;5075257;28;20128;-35
2022/11/08 09:28:25;;;;;;;5.88;1.60;;;12.60;99.90;;;;;;5075062;28;20213;-35
2022/11/08 09:30:51;;;;;;;3.50;1.40;;;12.70;99.90;;;;;;5075094;28;20136;-36
2022/11/08 09:33:17;;;;;;;4.47;1.42;;;12.70;99.90;;;;;;5074446;28;20131;-35
2022/11/08 09:35:45;;;;;;;5.38;1.58;;;12.80;99.90;;;;;;5075081;28;20044;-35
2022/11/08 09:38:10;;;;;;;5.53;1.80;;;12.80;99.90;;;;;;5075016;28;20491;-35
2022/11/08 09:40:49;;;;;;;6.10;1.50;;;12.90;99.90;;;;;;5074958;28;20048;-35
2022/11/08 09:43:54;;;;;;;7.88;1.77;;;12.90;1.00;;;;;;5074648;28;20541;-34
2022/11/08 09:46:54;;;;;;;5.05;1.60;;;13.00;1.00;;;;;;5075538;28;20052;-35
2022/11/08 09:49:32;;;;;;;3.47;1.50;;;13.00;99.90;;;;;;5074808;28;20044;-34
2022/11/08 09:51:59;;;;;;;5.50;1.17;;;13.10;1.00;;;;;;5075514;28;20041;-35
2022/11/08 09:54:33;;;;;;;4.47;1.55;;;13.10;28.70;;;;;;5073536;28;20052;-35
2022/11/08 09:57:04;;;;;;;5.53;1.58;;;13.20;1.00;;;;;;5074565;28;20053;-34
2022/11/08 09:59:44;;;;;;;6.28;1.75;;;13.20;99.90;;;;;;5074295;28;20513;-35
2022/11/08 10:02:22;;;;;;;5.93;2.00;;;13.20;99.90;;;;;;5074747;28;20052;-34
2022/11/08 10:05:01;;;;;;;4.32;1.10;;;13.20;99.90;;;;;;5074404;28;20052;-35
2022/11/08 10:07:40;;;;;;;3.80;1.25;;;13.20;1.00;;;;;;5074392;28;20040;-34
2022/11/08 10:10:27;;;;;;;5.25;1.55;;;13.30;1.00;;;;;;5074342;28;20091;-34
2022/11/08 10:13:30;;;;;;;3.30;1.50;;;13.30;1.00;;;;;;5074333;28;20079;-35
2022/11/08 10:16:28;;;;;;;3.83;1.20;;;13.30;1.00;;;;;;5039872;28;20056;-34
2022/11/08 10:19:21;;;;;;;5.88;1.63;;;13.30;1.00;;;;;;5075074;28;20105;-34
2022/11/08 10:21:57;;;;;;;3.28;1.52;;;13.30;1.00;;;;;;5056346;28;20070;-34
2022/11/08 10:24:46;;;;;;;2.97;1.15;;;13.40;1.00;;;;;;5074193;28;20044;-34
2022/11/08 10:27:37;;;;;;;5.22;1.60;;;13.30;99.90;;;;;;5073812;28;20052;-34
2022/11/08 10:30:21;;;;;;;8.80;1.70;;;13.40;99.90;;;;;;5070562;28;20061;-34
2022/11/08 10:32:54;;;;;;;7.43;1.77;;;13.50;1.00;;;;;;5073982;28;20045;-34
2022/11/08 10:35:44;;;;;;;4.70;1.50;;;13.50;1.00;;;;;;5074076;28;20076;-34
2022/11/08 10:38:20;;;;;;;3.63;1.30;;;13.60;1.00;;;;;;5073975;28;20131;-34
2022/11/08 10:40:59;;;;;;;3.88;1.58;;;13.50;1.00;;;;;;5073984;28;20095;-33
2022/11/08 10:43:54;;;;;;;5.00;1.50;;;13.50;99.90;;;;;;5073772;28;20051;-34
2022/11/08 10:46:35;;;;;;;5.63;1.92;;;13.40;99.90;;;;;;5064292;28;20482;-33
2022/11/08 10:49:21;;;;;;;5.57;1.60;;;13.30;99.90;;;;;;5073719;28;20551;-33
2022/11/08 10:51:50;;;;;;;4.30;1.52;;;13.30;1.00;;;;;;5071695;28;20048;-34
2022/11/08 10:54:48;;;;;;;10.02;8.30;;;13.30;1.00;;;;;;5074181;28;20555;-34
2022/11/08 10:57:24;;;;;;;50.03;21.27;;;13.30;99.90;;;;;;5072312;28;20048;-33
2022/11/08 10:59:51;;;;;;;35.15;17.33;;;13.30;99.90;;;;;;5074420;28;20052;-33
2022/11/08 11:02:21;;;;;;;38.83;17.98;;;13.30;1.00;;;;;;5073041;28;20052;-34
2022/11/08 11:04:47;;;;;;;40.47;21.92;;;13.40;1.00;;;;;;5073632;28;20053;-34
2022/11/08 11:07:33;;;;;;;21.85;11.95;;;13.50;99.90;;;;;;5073551;28;20045;-34
2022/11/08 11:10:36;;;;;;;21.52;12.65;;;13.50;99.90;;;;;;5073447;28;20045;-34
2022/11/08 11:13:14;;;;;;;24.23;12.80;;;13.60;1.00;;;;;;5072994;28;20044;-33
2022/11/08 11:15:59;;;;;;;34.90;19.55;;;13.60;1.00;;;;;;5055879;28;20502;-33
2022/11/08 11:18:34;;;;;;;27.42;14.68;;;13.70;1.00;;;;;;5073518;28;20478;-33
2022/11/08 11:21:20;;;;;;;11.63;6.82;;;13.70;99.90;;;;;;5072836;28;20143;-33
2022/11/08 11:23:52;;;;;;;9.25;5.97;;;13.80;1.00;;;;;;5073433;28;20059;-33
2022/11/08 11:26:33;;;;;;;9.40;4.53;;;13.90;1.00;;;;;;5073271;28;20102;-33
2022/11/08 11:29:01;;;;;;;18.83;11.85;;;14.00;99.90;;;;;;5055739;28;20079;-33
2022/11/08 11:31:27;;;;;;;17.10;11.10;;;14.10;99.90;;;;;;5072258;28;20048;-33
2022/11/08 11:33:53;;;;;;;10.55;6.93;;;14.10;1.00;;;;;;5073352;28;20070;-33
2022/11/08 11:36:23;;;;;;;209.13;108.80;;;14.20;57.20;;;;;;5073318;28;20048;-33
2022/11/08 11:39:03;;;;;;;803.78;467.20;;;14.20;1.00;;;;;;5072651;28;20072;-33
2022/11/08 11:41:38;;;;;;;12.05;5.60;;;14.20;77.30;;;;;;5056408;28;20429;-33
2022/11/08 11:44:40;;;;;;;8.85;6.95;;;14.20;99.90;;;;;;5073870;28;20105;-34
2022/11/08 11:47:14;;;;;;;4.55;1.60;;;14.10;99.90;;;;;;5054030;28;20065;-43
2022/11/08 11:49:42;;;;;;;3.50;1.30;;;14.10;99.90;;;;;;5072657;28;20048;-41
2022/11/08 11:52:18;;;;;;;4.22;1.40;;;14.20;1.00;;;;;;5073038;28;20399;-42
2022/11/08 11:54:45;;;;;;;3.15;1.27;;;14.20;99.90;;;;;;5073506;28;20123;-42
2022/11/08 11:57:33;;;;;;;4.88;1.73;;;14.30;99.90;;;;;;5076845;28;20051;-38
2022/11/08 12:00:08;;;;;;;3.65;1.70;;;14.30;1.00;;;;;;5076783;28;20048;-42
2022/11/08 12:02:53;;;;;;;5.75;1.20;;;14.30;99.90;;;;;;5076573;28;20466;-38
2022/11/08 12:05:32;;;;;;;2.75;0.60;;;14.40;87.70;;;;;;5076849;28;20394;-42
2022/11/08 12:08:14;;;;;;;3.75;1.00;;;14.40;99.90;;;;;;5076972;28;20458;-42
2022/11/08 12:11:04;;;;;;;4.57;1.15;;;14.40;99.90;;;;;;5059662;28;20375;-42
2022/11/08 12:13:53;;;;;;;5.03;1.38;;;14.40;99.90;;;;;;5059192;28;20048;-42
2022/11/08 12:16:19;;;;;;;4.15;1.33;;;14.40;1.00;;;;;;5077042;28;20040;-42
2022/11/08 12:19:23;;;;;;;3.15;1.40;;;14.40;99.90;;;;;;5076510;28;20094;-42
2022/11/08 12:21:58;;;;;;;;;;;14.40;1.00;;;;;;5075317;28;20142;-42
2022/11/08 12:24:51;;;;;;;6.13;1.42;;;14.50;99.90;;;;;;5077322;28;19920;-42
2022/11/08 12:27:29;;;;;;;7.40;1.20;;;14.70;99.90;;;;;;5076406;28;20131;-42
2022/11/08 12:29:57;;;;;;;4.15;1.10;;;14.70;99.90;;;;;;5076366;28;20044;-42
2022/11/08 12:32:33;;;;;;;3.03;1.42;;;14.80;1.00;;;;;;5076238;28;20036;-42
2022/11/08 12:35:43;;;;;;;6.32;1.30;;;14.80;99.90;;;;;;5076321;28;20048;-41
2022/11/08 12:38:16;;;;;;;4.13;1.80;;;14.80;99.90;;;;;;5054705;28;20053;-41
2022/11/08 12:40:51;;;;;;;3.47;0.95;;;14.90;52.20;;;;;;5053922;28;20506;-38
2022/11/08 12:43:38;;;;;;;1.60;0.93;;;15.00;1.00;;;;;;5067531;28;20061;-40
2022/11/08 12:46:17;;;;;;;5.07;1.13;;;15.00;99.90;;;;;;5076646;28;20090;-41
2022/11/08 12:49:08;;;;;;;3.58;1.20;;;15.00;90.20;;;;;;5075378;28;20478;-39
2022/11/08 12:51:55;;;;;;;4.70;1.27;;;15.00;99.90;;;;;;5076723;28;20063;-40
2022/11/08 12:54:31;;;;;;;5.32;1.25;;;14.90;99.90;;;;;;5075969;28;20517;-39
2022/11/08 12:57:04;;;;;;;5.95;1.00;;;14.70;99.90;;;;;;5075895;28;20053;-40
2022/11/08 12:59:37;;;;;;;;;;;14.60;99.90;;;;;;5076778;28;20127;-40
2022/11/08 13:02:04;;;;;;;9.35;1.45;;;14.60;99.90;;;;;;5075793;28;19921;-38
2022/11/08 13:04:45;;;;;;;2.63;0.77;;;14.60;99.90;;;;;;5075560;28;20053;-36
2022/11/08 13:07:52;;;;;;;3.15;0.95;;;14.50;99.90;;;;;;5075261;28;20132;-39
2022/11/08 13:10:37;;;;;;;5.13;1.20;;;14.50;99.90;;;;;;5076477;28;20044;-37
2022/11/08 13:13:14;;;;;;;4.32;1.10;;;14.50;99.90;;;;;;5076380;28;20040;-37
2022/11/08 13:16:10;;;;;;;1.98;1.23;;;14.60;99.90;;;;;;5076375;28;20048;-39
2022/11/08 13:18:44;;;;;;;3.92;1.40;;;14.60;1.00;;;;;;5075665;28;20095;-40
2022/11/08 13:21:39;;;;;;;4.75;1.63;;;14.80;1.00;;;;;;5076266;28;20091;-39